Time;durP1;ratioP1;P1;durP2;ratioP2;P2;SDS_P1;SDS_P2;PMS_P1;PMS_P2;Temp;Humidity;BMP_temperature;BMP_pressure;BME280_temperature;BME280_humidity;BME280_pressure;Samples;Min_cycle;Max_cycle;Signal;HPM_P1;HPM_P2
2022/12/21 00:00:16;;;;;;;8.40;7.57;;;11.30;99.90;;;;;;4997056;28;20857;-77
2022/12/21 00:02:43;;;;;;;10.83;7.50;;;11.30;99.90;;;;;;4997235;28;20933;-77
2022/12/21 00:05:11;;;;;;;9.00;8.10;;;11.30;99.90;;;;;;4997434;28;20487;-77
2022/12/21 00:07:39;;;;;;;9.00;7.53;;;11.30;99.90;;;;;;4997460;28;20451;-77
2022/12/21 00:10:07;;;;;;;9.10;8.20;;;11.40;99.90;;;;;;4997340;28;20459;-77
2022/12/21 00:12:33;;;;;;;8.67;7.80;;;11.40;99.90;;;;;;4997184;28;20549;-77
2022/12/21 00:15:00;;;;;;;9.17;8.20;;;11.40;99.90;;;;;;4996731;28;20491;-77
2022/12/21 00:17:27;;;;;;;9.70;8.80;;;11.40;99.90;;;;;;4996474;28;20825;-77
2022/12/21 00:19:53;;;;;;;9.90;7.73;;;11.50;99.90;;;;;;4996369;28;20467;-76
2022/12/21 00:22:20;;;;;;;7.67;6.97;;;11.50;99.90;;;;;;4996767;28;20455;-77
2022/12/21 00:24:49;;;;;;;7.80;7.10;;;11.50;99.90;;;;;;4996747;28;20481;-77
2022/12/21 00:27:16;;;;;;;9.33;8.40;;;11.50;99.90;;;;;;4997056;28;20532;-77
2022/12/21 00:29:43;;;;;;;10.50;8.47;;;11.50;99.90;;;;;;4997298;28;20996;-77
2022/12/21 00:32:10;;;;;;;9.50;8.60;;;11.50;99.90;;;;;;4996623;28;20847;-77
2022/12/21 00:34:36;;;;;;;8.87;7.97;;;11.50;99.90;;;;;;4997660;28;20481;-77
2022/12/21 00:37:03;;;;;;;9.87;8.87;;;11.60;99.90;;;;;;4997109;28;20460;-77
2022/12/21 00:39:30;;;;;;;9.60;8.13;;;11.60;99.90;;;;;;4997238;28;20432;-76
2022/12/21 00:41:58;;;;;;;8.00;7.20;;;11.60;99.90;;;;;;4996207;28;20957;-76
2022/12/21 00:44:24;;;;;;;10.37;9.13;;;11.60;99.90;;;;;;4996190;28;20476;-77
2022/12/21 00:46:51;;;;;;;11.23;9.93;;;11.60;99.90;;;;;;4996436;28;20437;-76
2022/12/21 00:49:18;;;;;;;9.17;8.37;;;11.50;99.90;;;;;;4996490;28;20485;-76
2022/12/21 00:51:44;;;;;;;9.87;8.97;;;11.60;99.90;;;;;;4996223;28;20467;-76
2022/12/21 00:54:11;;;;;;;11.23;9.20;;;11.60;99.90;;;;;;4996318;28;20636;-76
2022/12/21 00:56:38;;;;;;;10.87;9.37;;;11.60;99.90;;;;;;4996330;28;20475;-76
2022/12/21 00:59:06;;;;;;;12.40;10.33;;;11.50;99.90;;;;;;4995994;28;20452;-77
2022/12/21 01:01:34;;;;;;;12.97;11.17;;;11.50;99.90;;;;;;4995876;28;20493;-76
2022/12/21 01:04:01;;;;;;;17.40;10.70;;;11.50;99.90;;;;;;4995746;28;20569;-77
2022/12/21 01:06:30;;;;;;;13.00;11.67;;;11.40;99.90;;;;;;4995973;28;20452;-76
2022/12/21 01:08:57;;;;;;;15.13;11.33;;;11.40;99.90;;;;;;4995802;28;20491;-76
2022/12/21 01:11:25;;;;;;;13.57;11.97;;;11.40;99.90;;;;;;4995861;28;20444;-76
2022/12/21 01:13:54;;;;;;;14.40;12.60;;;11.40;99.90;;;;;;4995364;28;20965;-77
2022/12/21 01:16:25;;;;;;;14.10;12.23;;;11.30;99.90;;;;;;4995731;28;20460;-76
2022/12/21 01:18:52;;;;;;;15.00;13.43;;;11.40;99.90;;;;;;4995630;28;20436;-77
2022/12/21 01:21:21;;;;;;;15.97;14.23;;;11.30;99.90;;;;;;4995780;28;20441;-77
2022/12/21 01:23:49;;;;;;;16.30;13.27;;;11.30;99.90;;;;;;4995308;28;20440;-76
2022/12/21 01:26:15;;;;;;;15.87;13.80;;;11.20;99.90;;;;;;4995517;28;20460;-76
2022/12/21 01:28:43;;;;;;;16.63;13.60;;;11.20;99.90;;;;;;4995521;28;20500;-76
2022/12/21 01:31:09;;;;;;;20.40;13.23;;;11.30;99.90;;;;;;4995362;28;20555;-76
2022/12/21 01:33:37;;;;;;;17.13;13.63;;;11.30;99.90;;;;;;4995437;28;20467;-76
2022/12/21 01:36:05;;;;;;;17.77;14.27;;;11.30;99.90;;;;;;4995599;28;20439;-76
2022/12/21 01:38:32;;;;;;;18.20;13.77;;;11.30;99.90;;;;;;4995284;28;20433;-76
2022/12/21 01:40:59;;;;;;;15.00;13.40;;;11.30;99.90;;;;;;4995058;28;20913;-76
2022/12/21 01:43:44;;;;;;;15.40;13.53;;;11.30;99.90;;;;;;4995284;28;20453;-76
2022/12/21 01:46:16;;;;;;;15.63;13.50;;;11.30;99.90;;;;;;4995690;28;20483;-76
2022/12/21 01:48:49;;;;;;;17.40;14.40;;;11.30;99.90;;;;;;4995492;28;20472;-77
2022/12/21 01:51:17;;;;;;;15.90;13.20;;;11.30;99.90;;;;;;4980599;28;20468;-77
2022/12/21 01:53:48;;;;;;;19.43;13.57;;;11.30;99.90;;;;;;4975233;28;20969;-76
2022/12/21 01:56:18;;;;;;;17.43;14.00;;;11.30;99.90;;;;;;4975665;28;20457;-76
2022/12/21 01:58:45;;;;;;;17.60;14.30;;;11.30;99.90;;;;;;4975798;28;20434;-76
2022/12/21 02:01:11;;;;;;;20.17;14.80;;;11.30;99.90;;;;;;4975124;28;20475;-76
2022/12/21 02:03:42;;;;;;;20.07;15.33;;;11.40;99.90;;;;;;4975149;28;20953;-76
2022/12/21 02:06:16;;;;;;;15.73;13.13;;;11.40;99.90;;;;;;4976365;28;20786;-76
2022/12/21 02:08:43;;;;;;;18.80;13.77;;;11.40;99.90;;;;;;4975438;28;20477;-77
2022/12/21 02:11:11;;;;;;;20.67;14.07;;;11.40;99.90;;;;;;4975500;28;20457;-76
2022/12/21 02:13:40;;;;;;;19.27;14.40;;;11.40;99.90;;;;;;4975225;28;20445;-76
2022/12/21 02:16:18;;;;;;;15.30;13.63;;;11.40;99.90;;;;;;4974992;28;20465;-76
2022/12/21 02:19:09;;;;;;;20.53;14.63;;;11.50;99.90;;;;;;4975194;28;20433;-77
2022/12/21 02:21:43;;;;;;;17.60;13.37;;;11.50;99.90;;;;;;4975161;28;20473;-77
2022/12/21 02:24:47;;;;;;;17.40;14.27;;;11.50;99.90;;;;;;4975193;28;20500;-77
2022/12/21 02:27:46;;;;;;;17.87;14.87;;;11.50;99.90;;;;;;4976423;28;20464;-77
2022/12/21 02:30:17;;;;;;;19.47;14.37;;;11.50;99.90;;;;;;4974953;28;21119;-77
2022/12/21 02:33:18;;;;;;;19.33;13.40;;;11.50;99.90;;;;;;4974779;28;20465;-77
2022/12/21 02:35:58;;;;;;;23.50;14.27;;;11.60;99.90;;;;;;4953173;28;20854;-76
2022/12/21 02:38:42;;;;;;;14.63;12.83;;;11.60;99.90;;;;;;4975230;28;20441;-77
2022/12/21 02:41:17;;;;;;;15.93;12.80;;;11.60;99.90;;;;;;4974737;28;20437;-77
2022/12/21 02:46:44;;;;;;;18.03;14.27;;;11.50;99.90;;;;;;4974960;28;20933;-77
2022/12/21 02:49:14;;;;;;;17.83;12.50;;;11.60;99.90;;;;;;4974777;28;20484;-77
2022/12/21 02:51:48;;;;;;;15.40;12.80;;;11.60;99.90;;;;;;4974804;28;20453;-77
2022/12/21 02:54:18;;;;;;;18.10;11.83;;;11.50;99.90;;;;;;4974477;28;20485;-77
2022/12/21 02:56:45;;;;;;;16.60;12.90;;;11.50;99.90;;;;;;4974951;28;20453;-77
2022/12/21 02:59:14;;;;;;;19.47;13.23;;;11.50;99.90;;;;;;4974817;28;20474;-77
2022/12/21 03:01:55;;;;;;;18.83;13.10;;;11.50;99.90;;;;;;4974419;28;20450;-77
2022/12/21 03:04:44;;;;;;;19.90;12.50;;;11.50;99.90;;;;;;4974863;28;20551;-77
2022/12/21 03:07:31;;;;;;;18.43;12.57;;;11.60;99.90;;;;;;4974840;28;20937;-78
2022/12/21 03:10:05;;;;;;;24.67;12.63;;;11.60;99.90;;;;;;4974914;28;20826;-78
2022/12/21 03:12:45;;;;;;;15.23;11.70;;;11.50;99.90;;;;;;4975528;28;20449;-78
2022/12/21 03:15:19;;;;;;;15.90;12.20;;;11.60;99.90;;;;;;4974939;28;20473;-78
2022/12/21 03:17:50;;;;;;;17.00;11.63;;;11.60;99.90;;;;;;4975260;28;20484;-78
2022/12/21 03:20:24;;;;;;;20.80;12.20;;;11.60;99.90;;;;;;4974872;28;20445;-77
2022/12/21 03:22:58;;;;;;;19.63;13.77;;;11.60;99.90;;;;;;4974398;28;20973;-78
2022/12/21 03:25:31;;;;;;;16.90;12.53;;;11.60;99.90;;;;;;4974165;28;20997;-77
2022/12/21 03:28:04;;;;;;;18.97;11.43;;;11.60;99.90;;;;;;4974468;28;20437;-78
2022/12/21 03:30:35;;;;;;;15.57;11.77;;;11.60;99.90;;;;;;4974234;28;20504;-77
2022/12/21 03:33:05;;;;;;;16.93;11.93;;;11.60;99.90;;;;;;4974460;28;20456;-77
2022/12/21 03:35:39;;;;;;;14.93;11.30;;;11.60;99.90;;;;;;4974076;28;20473;-77
2022/12/21 03:38:12;;;;;;;18.10;12.60;;;11.60;99.90;;;;;;4974376;28;20451;-77
2022/12/21 03:40:42;;;;;;;17.60;11.47;;;11.60;99.90;;;;;;4974487;28;20440;-77
2022/12/21 03:43:13;;;;;;;19.37;12.97;;;11.60;99.90;;;;;;4974121;28;20831;-77
2022/12/21 03:45:43;;;;;;;21.03;13.80;;;11.60;99.90;;;;;;4974406;28;20477;-77
2022/12/21 03:48:16;;;;;;;16.00;13.03;;;11.60;99.90;;;;;;4974553;28;20456;-77
2022/12/21 03:50:48;;;;;;;21.30;13.50;;;11.60;99.90;;;;;;4973999;28;21045;-77
2022/12/21 03:53:27;;;;;;;18.40;12.90;;;11.50;99.90;;;;;;4976168;28;20460;-77
2022/12/21 03:55:56;;;;;;;17.57;12.00;;;11.50;99.90;;;;;;4980358;28;20483;-77
2022/12/21 03:58:23;;;;;;;18.80;13.47;;;11.50;99.90;;;;;;4979019;28;20468;-77
2022/12/21 04:00:59;;;;;;;20.80;13.00;;;11.60;99.90;;;;;;4980748;28;20449;-77
2022/12/21 04:03:30;;;;;;;18.60;13.70;;;11.50;99.90;;;;;;4980575;28;20440;-77
2022/12/21 04:06:03;;;;;;;19.57;13.53;;;11.50;99.90;;;;;;4979105;28;20472;-77
2022/12/21 04:08:32;;;;;;;18.20;13.17;;;11.50;99.90;;;;;;4980235;28;20437;-78
2022/12/21 04:10:59;;;;;;;20.20;13.17;;;11.50;99.90;;;;;;4981493;28;20476;-78
2022/12/21 04:13:24;;;;;;;18.93;13.37;;;11.50;99.90;;;;;;4981951;28;20529;-78
2022/12/21 04:16:06;;;;;;;20.17;13.70;;;11.50;99.90;;;;;;4980479;28;20500;-78
2022/12/21 04:21:19;;;;;;;15.40;12.70;;;11.50;99.90;;;;;;4978539;28;20409;-78
2022/12/21 04:29:15;;;;;;;16.27;10.70;;;11.50;99.90;;;;;;4978479;28;20459;-77
2022/12/21 04:31:42;;;;;;;24.90;12.50;;;11.40;99.90;;;;;;4978770;28;20457;-78
2022/12/21 04:34:08;;;;;;;20.20;13.40;;;11.40;99.90;;;;;;4979491;28;20481;-78
2022/12/21 04:39:21;;;;;;;19.10;11.07;;;11.40;99.90;;;;;;4978216;28;20561;-78
2022/12/21 04:41:47;;;;;;;13.83;10.30;;;11.40;99.90;;;;;;4978361;28;20463;-77
2022/12/21 04:44:14;;;;;;;19.83;10.83;;;11.40;99.90;;;;;;4979251;28;20864;-78
2022/12/21 04:46:41;;;;;;;15.30;11.10;;;11.40;99.90;;;;;;4978906;28;20458;-77
2022/12/21 04:49:07;;;;;;;17.17;11.23;;;11.40;99.90;;;;;;4978817;28;20870;-77
2022/12/21 04:51:35;;;;;;;19.00;12.70;;;11.40;99.90;;;;;;4977832;28;20469;-77
2022/12/21 04:54:04;;;;;;;21.73;11.23;;;11.40;99.90;;;;;;4977225;28;20990;-77
2022/12/21 04:56:31;;;;;;;14.50;11.23;;;11.40;99.90;;;;;;4977596;28;20464;-77
2022/12/21 04:58:58;;;;;;;14.20;9.93;;;11.40;99.90;;;;;;4977518;28;20453;-77
2022/12/21 05:01:28;;;;;;;15.23;9.17;;;11.40;99.90;;;;;;4977697;28;20444;-78
2022/12/21 05:03:58;;;;;;;18.07;10.30;;;11.40;99.90;;;;;;4977319;28;20820;-78
2022/12/21 05:06:24;;;;;;;15.20;10.73;;;11.40;99.90;;;;;;4977580;28;20461;-78
2022/12/21 05:08:53;;;;;;;15.63;10.40;;;11.40;99.90;;;;;;4976955;28;20467;-78
2022/12/21 05:11:21;;;;;;;14.03;9.80;;;11.40;99.90;;;;;;4977143;28;20485;-77
2022/12/21 05:13:49;;;;;;;11.47;8.80;;;11.40;99.90;;;;;;4976868;28;20441;-78
2022/12/21 05:16:19;;;;;;;10.90;8.73;;;11.40;99.90;;;;;;4976588;28;20472;-77
2022/12/21 05:18:48;;;;;;;11.10;8.90;;;11.40;99.90;;;;;;4977419;28;20487;-77
2022/12/21 05:21:15;;;;;;;9.20;8.20;;;11.40;99.90;;;;;;4976673;28;20541;-77
2022/12/21 05:23:42;;;;;;;9.53;8.10;;;11.40;99.90;;;;;;4976290;28;20453;-77
2022/12/21 05:26:11;;;;;;;10.70;8.30;;;11.40;99.90;;;;;;4976996;28;20454;-77
2022/12/21 05:28:37;;;;;;;11.67;8.37;;;11.40;99.90;;;;;;4976339;28;20486;-77
2022/12/21 05:31:05;;;;;;;8.43;7.00;;;11.40;99.90;;;;;;4975816;28;20485;-77
2022/12/21 05:33:32;;;;;;;9.90;8.53;;;11.40;99.90;;;;;;4976327;28;20454;-77
2022/12/21 05:36:02;;;;;;;9.67;7.10;;;11.30;99.90;;;;;;4976845;28;20469;-77
2022/12/21 05:38:28;;;;;;;10.27;8.77;;;11.40;99.90;;;;;;4976660;28;20441;-77
2022/12/21 05:40:55;;;;;;;9.57;7.90;;;11.30;99.90;;;;;;4976754;28;20484;-78
2022/12/21 05:43:23;;;;;;;9.10;6.80;;;11.30;99.90;;;;;;4976965;28;20799;-78
2022/12/21 05:45:50;;;;;;;10.20;7.97;;;11.30;99.90;;;;;;4977513;28;20487;-78
2022/12/21 05:48:17;;;;;;;10.00;8.40;;;11.30;99.90;;;;;;4977379;28;20515;-78
2022/12/21 05:50:44;;;;;;;8.67;7.07;;;11.40;99.90;;;;;;4977078;28;20525;-78
2022/12/21 05:53:10;;;;;;;7.37;6.67;;;11.40;99.90;;;;;;4977145;28;20481;-78
2022/12/21 05:55:37;;;;;;;7.17;6.47;;;11.40;99.90;;;;;;4976424;28;20474;-78
2022/12/21 05:58:04;;;;;;;9.47;6.63;;;11.40;99.90;;;;;;4977555;28;20552;-78
2022/12/21 06:00:32;;;;;;;7.40;6.70;;;11.40;99.90;;;;;;4976214;28;20463;-78
2022/12/21 06:02:59;;;;;;;7.83;7.03;;;11.30;99.90;;;;;;4976294;28;20870;-77
2022/12/21 06:05:28;;;;;;;8.63;6.60;;;11.30;99.90;;;;;;4976129;28;20484;-77
2022/12/21 06:07:56;;;;;;;7.50;6.50;;;11.30;99.90;;;;;;4976048;28;20445;-78
2022/12/21 06:10:23;;;;;;;7.10;6.40;;;11.30;99.90;;;;;;4975928;28;20504;-78
2022/12/21 06:12:49;;;;;;;6.63;5.93;;;11.30;99.90;;;;;;4976518;28;20448;-78
2022/12/21 06:15:16;;;;;;;6.30;5.70;;;11.30;99.90;;;;;;4976092;28;20481;-78
2022/12/21 06:17:44;;;;;;;6.20;5.40;;;11.30;99.90;;;;;;4975737;28;20437;-80
2022/12/21 06:20:12;;;;;;;5.20;4.70;;;11.30;99.90;;;;;;4976985;28;20842;-79
2022/12/21 06:22:41;;;;;;;5.40;4.90;;;11.30;99.90;;;;;;4976957;28;20445;-79
2022/12/21 06:25:08;;;;;;;5.17;4.37;;;11.30;99.90;;;;;;4976830;28;20504;-78
2022/12/21 06:27:35;;;;;;;4.70;4.20;;;11.30;99.90;;;;;;4976428;28;20454;-78
2022/12/21 06:30:02;;;;;;;4.20;3.80;;;11.20;99.90;;;;;;4976195;28;20476;-78
2022/12/21 06:32:28;;;;;;;4.27;3.90;;;11.20;99.90;;;;;;4976398;28;20444;-78
2022/12/21 06:34:56;;;;;;;4.37;3.97;;;11.20;99.90;;;;;;4975932;28;20521;-78
2022/12/21 06:37:23;;;;;;;4.20;3.80;;;11.20;99.90;;;;;;4976297;28;20444;-78
2022/12/21 06:39:50;;;;;;;4.27;3.90;;;11.20;99.90;;;;;;4976243;28;20963;-78
2022/12/21 06:42:17;;;;;;;4.37;3.97;;;11.20;99.90;;;;;;4976690;28;20532;-78
2022/12/21 06:44:43;;;;;;;3.90;3.60;;;11.20;99.90;;;;;;4976120;28;20473;-78
2022/12/21 06:47:10;;;;;;;4.57;4.10;;;11.30;99.90;;;;;;4976303;28;20442;-78
2022/12/21 06:49:37;;;;;;;3.70;3.40;;;11.30;99.90;;;;;;4975727;28;20464;-77
2022/12/21 06:52:05;;;;;;;3.30;3.00;;;11.20;99.90;;;;;;4975302;28;20514;-77
2022/12/21 06:54:33;;;;;;;3.67;3.37;;;11.20;99.90;;;;;;4975035;28;20477;-77
2022/12/21 06:57:00;;;;;;;4.50;4.07;;;11.20;99.90;;;;;;4977945;28;20433;-77
2022/12/21 06:59:29;;;;;;;3.50;3.17;;;11.20;99.90;;;;;;4975955;28;20864;-77
2022/12/21 07:01:56;;;;;;;2.70;2.50;;;11.20;99.90;;;;;;4975402;28;20803;-77
2022/12/21 07:04:24;;;;;;;2.93;2.63;;;11.20;99.90;;;;;;4975307;28;21050;-77
2022/12/21 07:06:52;;;;;;;3.10;2.80;;;11.20;99.90;;;;;;4975099;28;20866;-77
2022/12/21 07:09:20;;;;;;;2.53;2.33;;;11.10;99.90;;;;;;4975517;28;20445;-78
2022/12/21 07:11:51;;;;;;;3.73;3.43;;;11.10;99.90;;;;;;4974591;28;20499;-78
2022/12/21 07:14:18;;;;;;;2.80;2.43;;;11.10;99.90;;;;;;4974730;28;20571;-77
2022/12/21 07:16:44;;;;;;;2.83;2.63;;;11.10;99.90;;;;;;4974777;28;20460;-78
2022/12/21 07:19:11;;;;;;;3.30;3.00;;;11.10;99.90;;;;;;4974589;28;20466;-77
2022/12/21 07:21:38;;;;;;;3.43;3.10;;;11.10;99.90;;;;;;4975115;28;20848;-77
2022/12/21 07:24:06;;;;;;;3.93;3.47;;;11.10;99.90;;;;;;4975099;28;21021;-77
2022/12/21 07:26:34;;;;;;;3.70;2.90;;;11.10;99.90;;;;;;4975874;28;20511;-77
2022/12/21 07:29:02;;;;;;;3.83;3.23;;;11.10;99.90;;;;;;4979967;28;20445;-77
2022/12/21 07:31:29;;;;;;;2.80;2.60;;;11.10;99.90;;;;;;4983697;28;20519;-77
2022/12/21 07:33:56;;;;;;;3.13;2.87;;;11.10;99.90;;;;;;4986276;28;20925;-77
2022/12/21 07:36:23;;;;;;;3.80;3.40;;;11.10;99.90;;;;;;4987367;28;20822;-76
2022/12/21 07:38:50;;;;;;;2.57;2.37;;;11.10;99.90;;;;;;4989984;28;20440;-75
2022/12/21 07:41:17;;;;;;;6.70;4.63;;;11.10;99.90;;;;;;5003298;28;20445;-75
2022/12/21 07:43:46;;;;;;;6.73;4.60;;;11.10;99.90;;;;;;5003258;28;20432;-76
2022/12/21 07:46:13;;;;;;;7.63;5.37;;;11.10;99.90;;;;;;4997018;28;20912;-76
2022/12/21 07:48:40;;;;;;;6.53;5.47;;;11.10;99.90;;;;;;4988568;28;20459;-76
2022/12/21 07:51:07;;;;;;;8.93;6.20;;;11.10;99.90;;;;;;4988335;28;20488;-76
2022/12/21 07:53:34;;;;;;;7.80;6.17;;;11.10;99.90;;;;;;4987330;28;20448;-77
2022/12/21 07:56:02;;;;;;;8.30;5.53;;;11.00;99.90;;;;;;4987353;28;20475;-76
2022/12/21 07:58:29;;;;;;;8.33;6.73;;;11.00;99.90;;;;;;4987504;28;20446;-76
2022/12/21 08:01:09;;;;;;;9.70;8.00;;;11.00;99.90;;;;;;4987327;28;20437;-78
2022/12/21 08:03:36;;;;;;;9.30;7.60;;;11.00;99.90;;;;;;4988222;28;20547;-77
2022/12/21 08:06:03;;;;;;;10.03;7.80;;;11.00;99.90;;;;;;4987827;28;20563;-78
2022/12/21 08:08:30;;;;;;;11.33;9.50;;;10.90;99.90;;;;;;4987675;28;20455;-78
2022/12/21 08:10:57;;;;;;;16.97;10.27;;;10.90;99.90;;;;;;4986762;28;20492;-77
2022/12/21 08:13:25;;;;;;;13.80;10.27;;;10.90;99.90;;;;;;4987177;28;20440;-77
2022/12/21 08:15:59;;;;;;;14.60;10.87;;;10.90;99.90;;;;;;4985044;28;20476;-76
2022/12/21 08:18:28;;;;;;;13.73;10.43;;;11.00;99.90;;;;;;4985048;28;20452;-77
2022/12/21 08:20:55;;;;;;;12.17;9.67;;;10.90;99.90;;;;;;4984345;28;20969;-77
2022/12/21 08:23:22;;;;;;;20.40;12.70;;;10.90;99.90;;;;;;4983244;28;20441;-76
2022/12/21 08:25:48;;;;;;;14.50;10.93;;;10.90;99.90;;;;;;4982558;28;20560;-76
2022/12/21 08:28:15;;;;;;;17.77;12.23;;;10.90;99.90;;;;;;4981800;28;20445;-76
2022/12/21 08:30:42;;;;;;;18.70;12.70;;;10.90;99.90;;;;;;4981962;28;21056;-76
2022/12/21 08:33:09;;;;;;;19.93;12.90;;;11.00;99.90;;;;;;4981699;28;20458;-76
2022/12/21 08:35:37;;;;;;;17.47;12.50;;;11.00;99.90;;;;;;4981337;28;20472;-76
2022/12/21 08:38:04;;;;;;;22.10;13.30;;;11.00;99.90;;;;;;4981964;28;20464;-77
2022/12/21 08:40:31;;;;;;;22.50;14.10;;;11.00;99.90;;;;;;4981399;28;20472;-77
2022/12/21 08:42:58;;;;;;;16.87;12.40;;;11.00;99.90;;;;;;4982217;28;20461;-77
2022/12/21 08:45:25;;;;;;;20.17;13.50;;;11.10;99.90;;;;;;4982356;28;20500;-77
2022/12/21 08:47:52;;;;;;;23.60;14.20;;;11.10;99.90;;;;;;4981722;28;20456;-76
2022/12/21 08:50:18;;;;;;;23.87;14.50;;;11.20;99.90;;;;;;4979491;28;20459;-76
2022/12/21 08:52:48;;;;;;;23.13;14.60;;;11.20;99.90;;;;;;4978836;28;20441;-76
2022/12/21 08:55:16;;;;;;;25.50;15.50;;;11.20;99.90;;;;;;4979809;28;20516;-76
2022/12/21 08:57:42;;;;;;;19.33;13.50;;;11.20;99.90;;;;;;4980418;28;20444;-76
2022/12/21 09:00:11;;;;;;;23.50;15.43;;;11.20;99.90;;;;;;4979162;28;20456;-76
2022/12/21 09:02:38;;;;;;;38.30;22.30;;;11.20;99.90;;;;;;4978745;28;20456;-76
2022/12/21 09:05:05;;;;;;;41.80;23.87;;;11.00;99.90;;;;;;4979011;28;20468;-76
2022/12/21 09:07:32;;;;;;;49.17;27.03;;;10.90;99.90;;;;;;4979369;28;20473;-76
2022/12/21 09:10:00;;;;;;;42.00;26.93;;;10.80;99.90;;;;;;4978974;28;20476;-76
2022/12/21 09:12:28;;;;;;;41.87;26.40;;;10.80;99.90;;;;;;4978023;28;20495;-76
2022/12/21 09:14:55;;;;;;;43.90;24.37;;;10.80;99.90;;;;;;4979142;28;20474;-76
2022/12/21 09:17:22;;;;;;;34.60;21.70;;;10.80;99.90;;;;;;4977845;28;20464;-76
2022/12/21 09:19:49;;;;;;;32.93;19.83;;;10.80;99.90;;;;;;4977836;28;20473;-77
2022/12/21 09:22:16;;;;;;;28.70;19.60;;;10.80;99.90;;;;;;4977158;28;20484;-76
2022/12/21 09:24:44;;;;;;;29.80;16.90;;;10.80;99.90;;;;;;4977027;28;20480;-76
2022/12/21 09:27:12;;;;;;;23.33;15.87;;;10.90;99.90;;;;;;4977262;28;20815;-77
2022/12/21 09:29:38;;;;;;;21.67;14.93;;;10.90;99.90;;;;;;4978011;28;20457;-76
2022/12/21 09:32:05;;;;;;;20.17;13.90;;;11.00;99.90;;;;;;4976604;28;20520;-77
2022/12/21 09:34:32;;;;;;;20.50;12.83;;;11.00;99.90;;;;;;4977160;28;20476;-76
2022/12/21 09:37:00;;;;;;;17.53;12.47;;;11.10;99.90;;;;;;4977230;28;20455;-76
2022/12/21 09:39:26;;;;;;;21.60;12.10;;;11.20;99.90;;;;;;4976667;28;20495;-77
2022/12/21 09:42:06;;;;;;;19.23;12.77;;;11.20;99.90;;;;;;4976430;28;20825;-76
2022/12/21 09:44:52;;;;;;;19.57;13.17;;;11.20;99.90;;;;;;4976591;28;21008;-77
2022/12/21 09:47:25;;;;;;;17.17;11.40;;;11.30;99.90;;;;;;4977020;28;20436;-77
2022/12/21 09:49:54;;;;;;;20.60;11.60;;;11.20;99.90;;;;;;4976439;28;20441;-77
2022/12/21 09:52:25;;;;;;;15.57;11.77;;;11.20;99.90;;;;;;4976396;28;20999;-76
2022/12/21 09:54:57;;;;;;;17.30;10.50;;;11.10;99.90;;;;;;4976284;28;20479;-76
2022/12/21 09:57:29;;;;;;;16.07;11.00;;;11.10;99.90;;;;;;4976095;28;20776;-76
2022/12/21 09:59:58;;;;;;;16.30;11.67;;;10.90;99.90;;;;;;4976774;28;20440;-76
2022/12/21 10:02:41;;;;;;;19.37;12.97;;;10.90;99.90;;;;;;4976507;28;20444;-76
2022/12/21 10:05:22;;;;;;;17.50;12.13;;;10.80;99.90;;;;;;4976871;28;20474;-76
2022/12/21 10:08:22;;;;;;;16.00;11.73;;;10.80;99.90;;;;;;4975878;28;20445;-77
2022/12/21 10:10:56;;;;;;;19.37;12.10;;;10.80;99.90;;;;;;4967127;28;20460;-77
2022/12/21 10:13:37;;;;;;;18.00;11.37;;;10.80;99.90;;;;;;4975236;28;20940;-76
2022/12/21 10:16:15;;;;;;;15.20;10.17;;;10.80;99.90;;;;;;4975631;28;20442;-77
2022/12/21 10:18:53;;;;;;;16.13;11.43;;;10.70;99.90;;;;;;4975364;28;20445;-76
2022/12/21 10:21:31;;;;;;;13.07;9.00;;;10.70;99.90;;;;;;4975730;28;20517;-76
2022/12/21 10:23:59;;;;;;;13.27;9.00;;;10.70;99.90;;;;;;4975068;28;20511;-76
2022/12/21 10:26:27;;;;;;;16.30;8.70;;;10.70;99.90;;;;;;4975278;28;20459;-76
2022/12/21 10:29:02;;;;;;;13.00;9.27;;;10.60;99.90;;;;;;4974924;28;20448;-76
2022/12/21 10:31:34;;;;;;;14.60;8.27;;;10.60;99.90;;;;;;4974778;28;20506;-76
2022/12/21 10:34:02;;;;;;;10.00;7.47;;;10.60;99.90;;;;;;4975272;28;20484;-76
2022/12/21 10:36:36;;;;;;;13.90;8.20;;;10.50;99.90;;;;;;4975032;28;20972;-76
2022/12/21 10:39:03;;;;;;;14.67;10.00;;;10.50;99.90;;;;;;4976188;28;20452;-77
2022/12/21 10:41:34;;;;;;;12.60;9.40;;;10.50;99.90;;;;;;4975059;28;20455;-77
2022/12/21 10:44:02;;;;;;;12.67;8.60;;;10.50;99.90;;;;;;4975023;28;20482;-76
2022/12/21 10:46:34;;;;;;;11.90;7.60;;;10.50;99.90;;;;;;4975111;28;20955;-76
2022/12/21 10:49:16;;;;;;;13.40;9.10;;;10.50;99.90;;;;;;4974974;28;20438;-76
2022/12/21 10:51:43;;;;;;;16.57;9.70;;;10.60;99.90;;;;;;4991827;28;20494;-76
2022/12/21 10:54:14;;;;;;;15.43;8.23;;;10.70;99.90;;;;;;4994249;28;20509;-76
2022/12/21 10:56:46;;;;;;;13.37;8.73;;;10.60;99.90;;;;;;4994011;28;20450;-76
2022/12/21 10:59:21;;;;;;;12.87;7.50;;;10.70;99.90;;;;;;4994256;28;20864;-76
2022/12/21 11:01:49;;;;;;;16.40;10.13;;;10.80;99.90;;;;;;4995338;28;20450;-76
2022/12/21 11:04:26;;;;;;;13.10;8.50;;;10.80;99.90;;;;;;5001163;28;20503;-76
2022/12/21 11:07:02;;;;;;;12.53;8.40;;;10.90;99.90;;;;;;5000917;28;20438;-76
2022/12/21 11:09:36;;;;;;;13.50;8.57;;;11.10;99.90;;;;;;5000616;28;20469;-76
2022/12/21 11:12:21;;;;;;;18.10;8.70;;;11.20;99.90;;;;;;5001371;28;20470;-76
2022/12/21 11:14:48;;;;;;;14.47;8.07;;;11.30;99.90;;;;;;5000574;28;20506;-76
2022/12/21 11:17:22;;;;;;;16.43;7.70;;;11.50;99.90;;;;;;5000529;28;20925;-76
2022/12/21 11:19:50;;;;;;;12.60;7.43;;;11.70;99.90;;;;;;5000598;28;20502;-76
2022/12/21 11:22:29;;;;;;;9.33;6.13;;;11.80;99.90;;;;;;5000628;28;20456;-77
2022/12/21 11:24:59;;;;;;;13.10;5.43;;;12.00;99.90;;;;;;5000939;28;20479;-77
2022/12/21 11:27:28;;;;;;;9.67;5.00;;;12.10;99.90;;;;;;5000558;28;20448;-77
2022/12/21 11:29:58;;;;;;;12.93;5.50;;;12.00;99.70;;;;;;5000434;28;20444;-76
2022/12/21 11:32:29;;;;;;;14.67;5.57;;;11.80;99.60;;;;;;5000414;28;20476;-76
2022/12/21 11:34:57;;;;;;;15.87;5.50;;;11.80;99.90;;;;;;5000569;28;20472;-76
2022/12/21 11:37:28;;;;;;;14.70;5.07;;;11.80;99.90;;;;;;5000366;28;20436;-76
2022/12/21 11:40:07;;;;;;;11.10;5.20;;;11.80;99.90;;;;;;5000236;28;20432;-76
2022/12/21 11:42:34;;;;;;;11.90;4.83;;;11.80;99.90;;;;;;5000534;28;20865;-76
2022/12/21 11:45:21;;;;;;;10.53;4.20;;;11.70;99.90;;;;;;5000344;28;20476;-76
2022/12/21 11:48:03;;;;;;;10.70;3.63;;;11.70;99.80;;;;;;5000515;28;20438;-76
2022/12/21 11:50:40;;;;;;;10.50;4.10;;;11.50;99.40;;;;;;5000623;28;20444;-77
2022/12/21 11:53:27;;;;;;;17.60;3.93;;;11.40;99.80;;;;;;5000239;28;20475;-76
2022/12/21 11:56:05;;;;;;;13.47;4.00;;;11.30;99.90;;;;;;5000621;28;20480;-76
2022/12/21 11:58:53;;;;;;;6.33;2.83;;;11.30;99.90;;;;;;4981319;28;20558;-76
2022/12/21 12:01:33;;;;;;;6.67;2.60;;;11.30;99.90;;;;;;4989939;28;20440;-76
2022/12/21 12:04:19;;;;;;;5.73;2.10;;;11.30;99.90;;;;;;4989675;28;20551;-76
2022/12/21 12:07:07;;;;;;;9.00;3.00;;;11.40;99.80;;;;;;4985581;28;20441;-77
2022/12/21 12:09:53;;;;;;;6.57;2.67;;;11.40;99.80;;;;;;4984539;28;20445;-78
2022/12/21 12:12:29;;;;;;;5.07;2.37;;;11.50;99.70;;;;;;4983585;28;20480;-77
2022/12/21 12:15:14;;;;;;;6.33;2.97;;;11.70;99.40;;;;;;4980282;28;20865;-77
2022/12/21 12:17:53;;;;;;;7.30;2.37;;;11.70;98.70;;;;;;4980455;28;20902;-78
2022/12/21 12:20:45;;;;;;;5.90;3.13;;;11.70;98.80;;;;;;4979536;28;20763;-77
2022/12/21 12:23:21;;;;;;;6.50;2.80;;;11.80;98.90;;;;;;4978349;28;20945;-77
2022/12/21 12:26:05;;;;;;;4.67;2.20;;;11.90;98.80;;;;;;4978167;28;20487;-76
2022/12/21 12:28:55;;;;;;;8.10;3.13;;;11.90;98.10;;;;;;4977774;28;20441;-77
2022/12/21 12:31:36;;;;;;;3.93;2.10;;;12.00;98.30;;;;;;4977913;28;20839;-78
2022/12/21 12:34:20;;;;;;;8.20;2.80;;;12.00;97.90;;;;;;4977839;28;20477;-78
2022/12/21 12:37:00;;;;;;;5.53;3.13;;;12.10;98.10;;;;;;4978946;28;20925;-77
2022/12/21 12:39:51;;;;;;;4.43;2.50;;;12.20;97.90;;;;;;4977356;28;20941;-77
2022/12/21 12:42:21;;;;;;;5.13;2.93;;;12.30;97.60;;;;;;4978264;28;20442;-77
2022/12/21 12:45:09;;;;;;;5.33;3.10;;;12.30;97.60;;;;;;4977516;28;20473;-77
2022/12/21 12:47:45;;;;;;;3.17;2.57;;;12.50;97.70;;;;;;4977551;28;20442;-77
2022/12/21 12:50:23;;;;;;;6.30;3.13;;;12.50;97.30;;;;;;4977284;28;20449;-78
2022/12/21 12:53:00;;;;;;;6.63;3.10;;;12.60;97.30;;;;;;4977592;28;20532;-78
2022/12/21 12:55:38;;;;;;;7.37;4.37;;;12.60;97.20;;;;;;4977696;28;21023;-77
2022/12/21 12:58:11;;;;;;;7.70;3.13;;;12.70;97.20;;;;;;4977703;28;20430;-77
2022/12/21 13:00:54;;;;;;;6.77;2.83;;;12.80;97.00;;;;;;4976862;28;20444;-78
2022/12/21 13:03:30;;;;;;;5.80;3.00;;;12.90;96.70;;;;;;4976796;28;20922;-77
2022/12/21 13:06:09;;;;;;;7.70;3.00;;;12.90;96.30;;;;;;4976967;28;20461;-77
2022/12/21 13:08:51;;;;;;;8.37;3.10;;;13.00;96.40;;;;;;4977062;28;20452;-77